Time;durP1;ratioP1;P1;durP2;ratioP2;P2;SDS_P1;SDS_P2;PMS_P1;PMS_P2;Temp;Humidity;BMP_temperature;BMP_pressure;BME280_temperature;BME280_humidity;BME280_pressure;Samples;Min_cycle;Max_cycle;Signal;HPM_P1;HPM_P2
2021/09/03 00:00:56;;;;;;;16.90;12.30;;;;;;;8.22;76.47;100150.65;467639;1194;141862;-62
2021/09/03 00:11:00;;;;;;;16.90;12.00;;;;;;;8.16;76.44;100140.79;471951;1190;141623;-63
2021/09/03 00:21:04;;;;;;;19.00;12.60;;;;;;;8.07;76.63;100127.92;470446;1195;143147;-62
2021/09/03 00:31:07;;;;;;;15.80;12.30;;;;;;;7.97;76.64;100119.67;466358;1194;141222;-61
2021/09/03 00:41:10;;;;;;;20.00;13.30;;;;;;;7.87;76.64;100115.91;465305;1194;141780;-62
2021/09/03 00:51:13;;;;;;;23.40;13.00;;;;;;;7.75;76.90;100105.27;472091;1194;141317;-62
2021/09/03 01:01:17;;;;;;;18.70;11.40;;;;;;;7.67;77.04;100098.64;458746;1195;141361;-62
2021/09/03 01:11:21;;;;;;;16.30;11.40;;;;;;;7.57;77.01;100088.99;467249;1195;141682;-62
2021/09/03 01:21:25;;;;;;;17.60;12.20;;;;;;;7.47;77.10;100086.10;472888;1193;141316;-62
2021/09/03 01:31:28;;;;;;;13.90;12.40;;;;;;;7.38;77.29;100081.09;472946;1194;141923;-62
2021/09/03 01:41:31;;;;;;;19.10;15.10;;;;;;;7.30;77.36;100075.83;462035;1195;142332;-61
2021/09/03 01:51:34;;;;;;;18.50;15.60;;;;;;;7.20;77.42;100071.57;466842;1195;145901;-62
2021/09/03 02:01:37;;;;;;;19.80;15.60;;;;;;;7.13;77.66;100067.89;472898;1194;140817;-62
2021/09/03 02:11:41;;;;;;;19.90;13.80;;;;;;;7.09;77.76;100057.92;471720;1194;141363;-61
2021/09/03 02:21:45;;;;;;;18.00;15.60;;;;;;;7.02;77.52;100056.84;464029;1194;141254;-62
2021/09/03 02:31:48;;;;;;;30.40;18.10;;;;;;;6.90;77.49;100046.69;460406;1195;141617;-62
2021/09/03 02:41:52;;;;;;;19.30;14.90;;;;;;;6.81;77.66;100042.20;472553;1195;143280;-63
2021/09/03 02:51:55;;;;;;;27.90;17.00;;;;;;;6.74;77.75;100027.86;472568;1183;143433;-62
2021/09/03 03:01:58;;;;;;;22.10;15.80;;;;;;;6.66;77.79;100018.63;468995;1195;142644;-63
2021/09/03 03:12:02;;;;;;;25.80;15.60;;;;;;;6.59;77.87;100011.06;472176;1193;142696;-60
2021/09/03 03:22:06;;;;;;;20.00;15.70;;;;;;;6.51;77.91;100000.98;466411;1195;145074;-63
2021/09/03 03:32:10;;;;;;;26.60;15.20;;;;;;;6.39;77.73;99996.89;471747;1195;142629;-63
2021/09/03 03:42:14;;;;;;;20.10;12.90;;;;;;;6.32;77.76;99985.02;472798;1194;141795;-62
2021/09/03 03:52:18;;;;;;;17.90;12.70;;;;;;;6.31;77.98;99977.42;472678;1183;140736;-62
2021/09/03 04:02:21;;;;;;;20.50;14.20;;;;;;;6.36;78.56;99966.59;471661;1194;141904;-63
2021/09/03 04:12:24;;;;;;;25.10;13.10;;;;;;;6.49;78.66;99966.58;472322;1194;141690;-62
2021/09/03 04:22:28;;;;;;;24.40;14.10;;;;;;;6.67;78.65;99958.91;472927;1189;141658;-63
2021/09/03 04:32:31;;;;;;;19.00;12.20;;;;;;;6.91;78.59;99944.48;460520;1195;141661;-62
2021/09/03 04:42:35;;;;;;;28.70;14.90;;;;;;;7.26;78.15;99931.65;472573;1193;141213;-62
2021/09/03 04:52:38;;;;;;;20.40;12.80;;;;;;;7.69;77.83;99934.42;472592;1185;143490;-63
2021/09/03 05:02:42;;;;;;;21.00;12.70;;;;;;;8.15;77.66;99935.05;472561;1194;141829;-63
2021/09/03 05:12:46;;;;;;;18.50;12.20;;;;;;;8.77;77.82;99926.80;472428;1194;143546;-63
2021/09/03 05:22:49;;;;;;;13.50;10.00;;;;;;;11.22;77.73;99917.52;471794;1192;142086;-63
2021/09/03 05:32:54;;;;;;;13.80;8.90;;;;;;;20.02;70.38;99906.30;472617;1194;143025;-64
2021/09/03 05:42:58;;;;;;;9.30;8.10;;;;;;;26.95;58.44;99886.27;472661;1194;142339;-65
2021/09/03 05:53:01;;;;;;;14.50;9.10;;;;;;;31.93;49.19;99880.60;471772;1194;141304;-65
2021/09/03 06:03:05;;;;;;;12.10;8.20;;;;;;;34.93;42.24;99876.84;472225;1194;141847;-66
2021/09/03 06:13:08;;;;;;;15.30;8.60;;;;;;;37.60;37.38;99874.13;472738;1194;141631;-65
2021/09/03 06:23:12;;;;;;;12.70;8.60;;;;;;;40.35;33.14;99870.55;471830;1190;140785;-66
2021/09/03 06:33:15;;;;;;;11.10;8.00;;;;;;;41.69;29.84;99858.45;472718;1194;142181;-65
2021/09/03 06:43:19;;;;;;;7.10;6.40;;;;;;;42.90;27.66;99859.11;472696;1194;141348;-65
2021/09/03 06:53:22;;;;;;;5.30;4.80;;;;;;;44.79;25.15;99856.62;471789;1183;140713;-65
2021/09/03 07:03:25;;;;;;;5.10;4.50;;;;;;;44.73;23.61;99846.38;472485;1194;141875;-65
2021/09/03 07:13:29;;;;;;;8.20;4.80;;;;;;;46.23;22.40;99844.27;472291;1194;139811;-64
2021/09/03 07:23:32;;;;;;;7.20;4.70;;;;;;;47.71;20.67;99853.86;471575;1194;140280;-63
2021/09/03 07:33:36;;;;;;;6.70;4.60;;;;;;;49.02;19.59;99858.64;472708;1194;140535;-60
2021/09/03 07:43:39;;;;;;;4.90;4.50;;;;;;;49.69;18.25;99845.20;472707;1194;144117;-61
2021/09/03 07:53:43;;;;;;;7.00;5.60;;;;;;;49.48;17.57;99835.95;472730;1194;141173;-62
2021/09/03 08:03:47;;;;;;;5.60;5.10;;;;;;;50.33;16.52;99824.44;472721;1194;141616;-62
2021/09/03 08:13:50;;;;;;;4.70;4.50;;;;;;;49.55;15.79;99809.10;472019;1194;140483;-63
2021/09/03 08:23:54;;;;;;;4.60;4.30;;;;;;;48.81;15.47;99796.86;472695;1194;143908;-59
2021/09/03 08:33:57;;;;;;;2.00;1.70;;;;;;;47.55;15.40;99785.71;472773;1194;140152;-61
2021/09/03 08:44:00;;;;;;;3.60;2.30;;;;;;;40.76;17.52;99779.65;472054;1194;141110;-61
2021/09/03 08:54:04;;;;;;;5.10;2.30;;;;;;;33.74;21.45;99773.02;464533;1194;10003056;-60
2021/09/03 09:04:13;;;;;;;4.50;1.40;;;;;;;30.05;25.10;99762.75;472814;1183;141009;-60
2021/09/03 09:14:17;;;;;;;4.20;1.90;;;;;;;28.07;27.24;99745.10;471708;1194;141276;-61
2021/09/03 09:24:20;;;;;;;7.70;2.00;;;;;;;26.37;29.65;99738.76;472673;1194;141416;-61
2021/09/03 09:34:28;;;;;;;5.90;2.10;;;;;;;24.99;32.00;99733.30;472610;1194;140916;-60
2021/09/03 09:44:34;;;;;;;3.90;2.00;;;;;;;23.91;34.26;99721.18;463598;1194;141704;-62
2021/09/03 09:54:37;;;;;;;3.60;2.10;;;;;;;23.12;36.31;99713.92;464293;1194;140446;-61
2021/09/03 10:04:41;;;;;;;6.00;2.40;;;;;;;22.87;37.43;99707.21;460857;1194;141332;-56
2021/09/03 10:14:44;;;;;;;3.40;2.30;;;;;;;22.79;37.88;99701.73;471972;1194;212375;-63
2021/09/03 10:25:06;;;;;;;4.30;2.20;;;;;;;22.52;38.84;99685.48;465435;1194;141400;-61
2021/09/03 10:35:19;;;;;;;4.40;2.00;;;;;;;22.25;39.02;99664.09;472299;1190;141040;-61
2021/09/03 10:45:25;;;;;;;3.50;2.30;;;;;;;22.04;40.03;99652.66;472834;1194;141153;-61
2021/09/03 10:55:50;;;;;;;7.10;3.70;;;;;;;21.85;40.59;99651.88;473125;1182;140926;-61
2021/09/03 11:06:02;;;;;;;6.10;3.50;;;;;;;21.71;41.38;99642.85;472840;1193;140795;-61
2021/09/03 11:16:05;;;;;;;5.30;3.70;;;;;;;21.77;42.42;99641.33;472888;1194;140433;-59
2021/09/03 11:26:15;;;;;;;4.50;3.90;;;;;;;21.86;42.80;99633.07;472077;1194;141365;-58
2021/09/03 11:36:19;;;;;;;11.90;4.70;;;;;;;21.78;42.28;99621.50;472798;1194;141263;-58
2021/09/03 11:46:22;;;;;;;10.50;5.00;;;;;;;21.64;43.35;99620.11;472690;1194;141631;-58
2021/09/03 11:56:26;;;;;;;6.90;5.90;;;;;;;21.74;43.37;99618.17;472016;1193;141691;-59
2021/09/03 12:06:31;;;;;;;5.70;5.20;;;;;;;21.79;43.68;99613.55;470266;1194;141515;-57
2021/09/03 12:16:39;;;;;;;15.40;5.40;;;;;;;21.69;44.27;99604.85;465675;1194;139684;-56
2021/09/03 12:26:47;;;;;;;;;;;;;;;21.52;44.75;99593.14;473007;1194;141431;-58
2021/09/03 12:36:56;;;;;;;12.40;5.30;;;;;;;21.48;45.56;99584.63;465827;1194;131487;-57
2021/09/03 12:47:02;;;;;;;5.20;4.70;;;;;;;21.58;45.59;99584.77;463889;1194;142567;-59
2021/09/03 12:57:06;;;;;;;7.10;5.00;;;;;;;21.88;45.66;99583.11;473154;1182;141257;-57
2021/09/03 13:07:09;;;;;;;10.40;5.70;;;;;;;21.86;46.09;99580.18;472927;1194;140981;-58
2021/09/03 13:17:12;;;;;;;11.10;8.80;;;;;;;21.64;46.33;99576.80;472076;1194;141728;-59
2021/09/03 13:27:19;;;;;;;;;;;;;;;21.59;46.53;99572.29;464905;1194;10001505;-60
2021/09/03 13:37:23;;;;;;;10.70;5.80;;;;;;;21.41;46.70;99558.34;473152;1194;128171;-60
2021/09/03 13:47:27;;;;;;;18.80;7.30;;;;;;;21.23;47.34;99549.98;471641;1193;141500;-57
2021/09/03 13:57:31;;;;;;;8.30;5.50;;;;;;;21.13;47.90;99539.09;472548;1194;140840;-61
2021/09/03 14:07:34;;;;;;;8.30;5.00;;;;;;;21.04;47.91;99522.88;472888;1195;141427;-61
2021/09/03 14:17:38;;;;;;;7.10;5.00;;;;;;;20.90;48.01;99518.15;469520;1194;141125;-58
2021/09/03 14:27:41;;;;;;;4.70;4.20;;;;;;;20.75;48.27;99510.27;464730;1194;10002004;-58
2021/09/03 14:37:44;;;;;;;8.10;5.20;;;;;;;20.70;48.52;99504.41;472130;1191;145348;-58
2021/09/03 14:47:48;;;;;;;7.50;4.20;;;;;;;20.67;48.65;99499.24;472799;1194;141266;-59
2021/09/03 14:57:52;;;;;;;11.80;6.50;;;;;;;20.55;48.97;99496.91;469459;1195;140698;-58
2021/09/03 15:07:57;;;;;;;8.60;4.90;;;;;;;20.56;49.30;99480.64;447922;1195;10138648;-58
2021/09/03 15:18:00;;;;;;;9.20;5.10;;;;;;;20.51;49.39;99485.45;472776;1194;142961;-59
2021/09/03 15:28:06;;;;;;;8.30;4.90;;;;;;;20.46;49.61;99478.54;472912;1194;140823;-60
2021/09/03 15:38:16;;;;;;;8.10;4.20;;;;;;;20.38;49.59;99474.44;465341;1195;143162;-57
2021/09/03 15:48:19;;;;;;;6.00;5.10;;;;;;;20.28;49.56;99474.62;459743;1195;141800;-60
2021/09/03 15:58:23;;;;;;;6.10;4.10;;;;;;;20.12;49.96;99468.26;456360;1195;141121;-58
2021/09/03 16:08:27;;;;;;;5.40;4.30;;;;;;;19.96;50.35;99464.80;471902;1194;141855;-59
2021/09/03 16:18:30;;;;;;;7.20;4.90;;;;;;;19.82;51.04;99457.21;460929;1194;180829;-58
2021/09/03 16:28:34;;;;;;;12.40;5.00;;;;;;;19.67;51.73;99456.75;470829;1194;140696;-60
2021/09/03 16:38:37;;;;;;;10.20;4.90;;;;;;;19.50;52.43;99446.66;471968;1195;142757;-61
2021/09/03 16:48:41;;;;;;;11.60;5.80;;;;;;;19.27;53.19;99449.52;472864;1194;142756;-59
2021/09/03 16:58:44;;;;;;;5.20;4.50;;;;;;;19.01;53.74;99442.18;472202;1192;141667;-59
2021/09/03 17:08:48;;;;;;;9.40;5.10;;;;;;;18.57;54.76;99441.26;471470;1194;141083;-58
2021/09/03 17:18:51;;;;;;;10.20;5.50;;;;;;;18.14;56.21;99444.90;464958;1194;141377;-60
2021/09/03 17:28:55;;;;;;;6.50;5.30;;;;;;;17.84;57.27;99446.25;472111;1194;142013;-59
2021/09/03 17:38:59;;;;;;;8.80;5.90;;;;;;;17.53;58.37;99445.41;467924;1194;142154;-58
2021/09/03 17:49:04;;;;;;;8.40;5.90;;;;;;;17.19;59.17;99450.56;472958;1192;141191;-57
2021/09/03 17:59:09;;;;;;;9.80;5.70;;;;;;;16.85;60.47;99452.95;463365;1195;142324;-58
2021/09/03 18:09:12;;;;;;;11.20;7.00;;;;;;;16.43;61.44;99462.29;463939;1194;141825;-59
2021/09/03 18:19:15;;;;;;;12.20;7.40;;;;;;;16.11;62.32;99467.27;472529;1193;141777;-59
2021/09/03 18:29:18;;;;;;;11.60;9.30;;;;;;;15.81;63.30;99470.93;471966;1194;142457;-60
2021/09/03 18:39:22;;;;;;;12.40;7.90;;;;;;;15.69;63.83;99481.31;472804;1194;142050;-60
2021/09/03 18:49:25;;;;;;;11.90;8.40;;;;;;;15.48;64.52;99488.88;463963;1194;141607;-58
2021/09/03 18:59:29;;;;;;;13.30;8.60;;;;;;;15.30;65.16;99484.77;471994;1194;141537;-59
2021/09/03 19:09:33;;;;;;;21.00;12.20;;;;;;;15.09;65.74;99482.48;456784;1194;10142983;-57
2021/09/03 19:19:36;;;;;;;11.80;8.40;;;;;;;14.79;66.34;99474.92;472627;1194;141584;-59
2021/09/03 19:29:40;;;;;;;11.60;9.30;;;;;;;14.48;67.04;99474.10;471931;1194;143614;-60
2021/09/03 19:39:43;;;;;;;17.30;9.60;;;;;;;14.21;67.76;99500.58;463131;1194;141937;-58
2021/09/03 19:49:48;;;;;;;12.40;9.20;;;;;;;14.28;68.13;99522.27;465508;1194;142597;-60
2021/09/03 19:59:51;;;;;;;18.50;10.90;;;;;;;14.38;67.41;99526.86;462186;1194;143729;-58
2021/09/03 20:09:55;;;;;;;14.40;9.90;;;;;;;14.42;67.43;99533.42;472627;1194;141971;-60
2021/09/03 20:19:59;;;;;;;12.40;8.70;;;;;;;14.30;67.50;99539.52;471769;1193;141691;-60
2021/09/03 20:30:03;;;;;;;13.90;11.40;;;;;;;14.17;67.89;99543.88;462858;1194;141754;-60
2021/09/03 20:40:09;;;;;;;11.00;9.60;;;;;;;14.02;68.28;99540.10;463142;1194;141593;-59
2021/09/03 20:50:12;;;;;;;14.60;9.40;;;;;;;13.86;68.63;99550.70;456071;1194;142645;-57
2021/09/03 21:00:17;;;;;;;14.70;9.80;;;;;;;13.61;69.25;99557.70;468399;1194;142934;-60
2021/09/03 21:10:21;;;;;;;14.50;10.40;;;;;;;13.34;69.84;99560.96;466650;1194;145567;-57
2021/09/03 21:20:25;;;;;;;13.00;10.20;;;;;;;13.16;70.65;99562.63;466853;1190;142375;-59
2021/09/03 21:30:29;;;;;;;20.70;10.70;;;;;;;13.17;70.99;99566.60;472608;1193;144940;-59
2021/09/03 21:40:33;;;;;;;15.40;10.10;;;;;;;13.04;71.22;99566.17;472645;1194;141147;-59
2021/09/03 21:50:37;;;;;;;13.00;9.60;;;;;;;12.88;71.64;99570.70;467612;1194;141675;-59
2021/09/03 22:00:40;;;;;;;14.30;10.10;;;;;;;12.73;72.02;99576.34;472599;1194;144357;-61
2021/09/03 22:10:43;;;;;;;16.20;11.70;;;;;;;12.54;72.13;99579.29;471867;1194;141689;-63
2021/09/03 22:20:47;;;;;;;17.50;11.40;;;;;;;12.27;72.42;99589.80;472753;1190;141475;-63
2021/09/03 22:30:50;;;;;;;13.70;11.30;;;;;;;12.03;72.85;99589.70;472667;1194;143625;-63
2021/09/03 22:40:53;;;;;;;18.40;11.20;;;;;;;11.86;72.99;99589.27;471956;1194;143061;-62
2021/09/03 22:50:57;;;;;;;13.90;11.40;;;;;;;11.66;73.14;99588.38;464632;1194;10001765;-63
2021/09/03 23:01:01;;;;;;;18.90;11.70;;;;;;;11.49;73.53;99592.69;465570;1193;142794;-64
2021/09/03 23:11:05;;;;;;;17.20;12.10;;;;;;;11.32;73.52;99589.09;471945;1194;142336;-63
2021/09/03 23:21:08;;;;;;;16.00;12.20;;;;;;;11.24;73.90;99594.31;472765;1194;143198;-64
2021/09/03 23:31:11;;;;;;;15.40;11.00;;;;;;;11.44;74.31;99596.35;472709;1194;142544;-63
2021/09/03 23:41:14;;;;;;;17.40;11.40;;;;;;;11.66;74.55;99601.33;472011;1194;141971;-63
2021/09/03 23:51:18;;;;;;;13.10;10.20;;;;;;;11.79;74.66;99601.89;464784;1194;142902;-60
